sensor_id;sensor_type;location;lat;lon;timestamp;pressure;altitude;pressure_sealevel;temperature
67829;BMP280;54626;45.436;10.942;2023-04-25T00:00:04;99885.28;;;14.69
67829;BMP280;54626;45.436;10.942;2023-04-25T00:02:33;99894.81;;;14.76
67829;BMP280;54626;45.436;10.942;2023-04-25T00:05:02;99897.94;;;14.80
67829;BMP280;54626;45.436;10.942;2023-04-25T00:07:28;99906.41;;;14.82
67829;BMP280;54626;45.436;10.942;2023-04-25T00:09:55;99907.88;;;14.83
67829;BMP280;54626;45.436;10.942;2023-04-25T00:12:26;99902.91;;;14.81
67829;BMP280;54626;45.436;10.942;2023-04-25T00:14:55;99895.28;;;14.82
67829;BMP280;54626;45.436;10.942;2023-04-25T00:17:23;99902.78;;;14.79
67829;BMP280;54626;45.436;10.942;2023-04-25T00:19:53;99899.25;;;14.79
67829;BMP280;54626;45.436;10.942;2023-04-25T00:22:19;99893.66;;;14.79
67829;BMP280;54626;45.436;10.942;2023-04-25T00:24:46;99886.34;;;14.74
67829;BMP280;54626;45.436;10.942;2023-04-25T00:27:13;99873.81;;;14.56
67829;BMP280;54626;45.436;10.942;2023-04-25T00:29:39;99866.72;;;14.36
67829;BMP280;54626;45.436;10.942;2023-04-25T00:32:06;99875.75;;;14.27
67829;BMP280;54626;45.436;10.942;2023-04-25T00:34:33;99873.53;;;14.16
67829;BMP280;54626;45.436;10.942;2023-04-25T00:36:59;99879.06;;;14.16
67829;BMP280;54626;45.436;10.942;2023-04-25T00:39:28;99870.16;;;14.18
67829;BMP280;54626;45.436;10.942;2023-04-25T00:41:54;99865.75;;;14.15
67829;BMP280;54626;45.436;10.942;2023-04-25T00:44:21;99871.03;;;14.11
67829;BMP280;54626;45.436;10.942;2023-04-25T00:46:48;99868.91;;;14.02
67829;BMP280;54626;45.436;10.942;2023-04-25T00:49:16;99851.81;;;14.05
67829;BMP280;54626;45.436;10.942;2023-04-25T00:51:44;99847.69;;;14.06
67829;BMP280;54626;45.436;10.942;2023-04-25T00:54:14;99854.88;;;14.09
67829;BMP280;54626;45.436;10.942;2023-04-25T00:56:41;99859.44;;;14.14
67829;BMP280;54626;45.436;10.942;2023-04-25T00:59:09;99854.88;;;14.09
67829;BMP280;54626;45.436;10.942;2023-04-25T01:01:39;99854.53;;;14.22
67829;BMP280;54626;45.436;10.942;2023-04-25T01:04:05;99846.19;;;14.22
67829;BMP280;54626;45.436;10.942;2023-04-25T01:06:31;99847.16;;;14.17
67829;BMP280;54626;45.436;10.942;2023-04-25T01:08:59;99842.34;;;14.18
67829;BMP280;54626;45.436;10.942;2023-04-25T01:11:26;99834.59;;;14.16
67829;BMP280;54626;45.436;10.942;2023-04-25T01:13:53;99838.31;;;14.02
67829;BMP280;54626;45.436;10.942;2023-04-25T01:16:19;99836.72;;;13.99
67829;BMP280;54626;45.436;10.942;2023-04-25T01:18:47;99832.75;;;14.02
67829;BMP280;54626;45.436;10.942;2023-04-25T01:21:13;99832.47;;;13.98
67829;BMP280;54626;45.436;10.942;2023-04-25T01:23:41;99827.22;;;14.02
67829;BMP280;54626;45.436;10.942;2023-04-25T01:26:10;99824.97;;;14.00
67829;BMP280;54626;45.436;10.942;2023-04-25T01:28:37;99825.91;;;14.03
67829;BMP280;54626;45.436;10.942;2023-04-25T01:31:07;99827.75;;;14.00
67829;BMP280;54626;45.436;10.942;2023-04-25T01:33:33;99830.41;;;13.98
67829;BMP280;54626;45.436;10.942;2023-04-25T01:36:00;99832.00;;;14.01
67829;BMP280;54626;45.436;10.942;2023-04-25T01:38:27;99832.47;;;13.98
67829;BMP280;54626;45.436;10.942;2023-04-25T01:40:54;99835.38;;;14.00
67829;BMP280;54626;45.436;10.942;2023-04-25T01:43:21;99838.78;;;14.08
67829;BMP280;54626;45.436;10.942;2023-04-25T01:45:49;99838.38;;;14.11
67829;BMP280;54626;45.436;10.942;2023-04-25T01:48:16;99837.19;;;14.14
67829;BMP280;54626;45.436;10.942;2023-04-25T01:50:46;99827.00;;;14.17
67829;BMP280;54626;45.436;10.942;2023-04-25T01:53:15;99832.28;;;14.22
67829;BMP280;54626;45.436;10.942;2023-04-25T01:55:42;99829.63;;;14.24
67829;BMP280;54626;45.436;10.942;2023-04-25T01:58:09;99827.00;;;14.26
67829;BMP280;54626;45.436;10.942;2023-04-25T02:00:38;99832.75;;;14.28
67829;BMP280;54626;45.436;10.942;2023-04-25T02:03:07;99823.22;;;14.22
67829;BMP280;54626;45.436;10.942;2023-04-25T02:05:37;99818.50;;;14.24
67829;BMP280;54626;45.436;10.942;2023-04-25T02:08:08;99809.44;;;14.24
67829;BMP280;54626;45.436;10.942;2023-04-25T02:10:35;99810.03;;;14.22
67829;BMP280;54626;45.436;10.942;2023-04-25T02:13:02;99804.88;;;14.19
67829;BMP280;54626;45.436;10.942;2023-04-25T02:15:31;99800.03;;;14.19
67829;BMP280;54626;45.436;10.942;2023-04-25T02:17:58;99799.03;;;14.24
67829;BMP280;54626;45.436;10.942;2023-04-25T02:20:27;99792.16;;;14.25
67829;BMP280;54626;45.436;10.942;2023-04-25T02:22:54;99785.75;;;14.32
67829;BMP280;54626;45.436;10.942;2023-04-25T02:25:21;99786.91;;;14.29
67829;BMP280;54626;45.436;10.942;2023-04-25T02:27:50;99792.63;;;14.31
67829;BMP280;54626;45.436;10.942;2023-04-25T02:30:18;99786.78;;;14.36
67829;BMP280;54626;45.436;10.942;2023-04-25T02:32:45;99794.56;;;14.38
67829;BMP280;54626;45.436;10.942;2023-04-25T02:35:11;99805.97;;;14.42
67829;BMP280;54626;45.436;10.942;2023-04-25T02:37:39;99806.59;;;14.50
67829;BMP280;54626;45.436;10.942;2023-04-25T02:40:06;99789.91;;;14.40
67829;BMP280;54626;45.436;10.942;2023-04-25T02:42:34;99768.34;;;14.32
67829;BMP280;54626;45.436;10.942;2023-04-25T02:45:01;99750.44;;;14.25
67829;BMP280;54626;45.436;10.942;2023-04-25T02:47:28;99742.84;;;14.26
67829;BMP280;54626;45.436;10.942;2023-04-25T02:49:54;99741.84;;;14.31
67829;BMP280;54626;45.436;10.942;2023-04-25T02:52:21;99745.25;;;14.38
67829;BMP280;54626;45.436;10.942;2023-04-25T02:54:48;99740.41;;;14.48
67829;BMP280;54626;45.436;10.942;2023-04-25T02:57:14;99746.13;;;14.50
67829;BMP280;54626;45.436;10.942;2023-04-25T02:59:41;99759.75;;;14.56
67829;BMP280;54626;45.436;10.942;2023-04-25T03:02:10;99754.19;;;14.56
67829;BMP280;54626;45.436;10.942;2023-04-25T03:04:36;99747.91;;;14.55
67829;BMP280;54626;45.436;10.942;2023-04-25T03:07:03;99747.16;;;14.55
67829;BMP280;54626;45.436;10.942;2023-04-25T03:09:29;99740.56;;;14.50
67829;BMP280;54626;45.436;10.942;2023-04-25T03:11:56;99743.03;;;14.46
67829;BMP280;54626;45.436;10.942;2023-04-25T03:14:22;99754.88;;;14.47
67829;BMP280;54626;45.436;10.942;2023-04-25T03:16:49;99762.22;;;14.52
67829;BMP280;54626;45.436;10.942;2023-04-25T03:19:15;99775.56;;;14.53
67829;BMP280;54626;45.436;10.942;2023-04-25T03:21:43;99779.53;;;14.50
67829;BMP280;54626;45.436;10.942;2023-04-25T03:24:10;99786.84;;;14.55
67829;BMP280;54626;45.436;10.942;2023-04-25T03:26:40;99781.28;;;14.55
67829;BMP280;54626;45.436;10.942;2023-04-25T03:29:08;99776.00;;;14.50
67829;BMP280;54626;45.436;10.942;2023-04-25T03:31:35;99764.69;;;14.48
67829;BMP280;54626;45.436;10.942;2023-04-25T03:34:02;99770.56;;;14.42
67829;BMP280;54626;45.436;10.942;2023-04-25T03:36:29;99772.31;;;14.38
67829;BMP280;54626;45.436;10.942;2023-04-25T03:38:58;99766.44;;;14.34
67829;BMP280;54626;45.436;10.942;2023-04-25T03:41:24;99774.63;;;14.32
67829;BMP280;54626;45.436;10.942;2023-04-25T03:43:51;99771.13;;;14.32
67829;BMP280;54626;45.436;10.942;2023-04-25T03:46:18;99773.00;;;14.29
67829;BMP280;54626;45.436;10.942;2023-04-25T03:48:44;99761.88;;;14.20
67829;BMP280;54626;45.436;10.942;2023-04-25T03:51:12;99762.16;;;14.24
67829;BMP280;54626;45.436;10.942;2023-04-25T03:53:41;99762.03;;;14.22
67829;BMP280;54626;45.436;10.942;2023-04-25T03:56:08;99767.13;;;14.16
67829;BMP280;54626;45.436;10.942;2023-04-25T03:58:35;99761.25;;;14.12
67829;BMP280;54626;45.436;10.942;2023-04-25T04:01:02;99772.69;;;14.16
67829;BMP280;54626;45.436;10.942;2023-04-25T04:03:34;99777.81;;;14.19
67829;BMP280;54626;45.436;10.942;2023-04-25T04:06:03;99777.63;;;14.17
67829;BMP280;54626;45.436;10.942;2023-04-25T04:08:30;99786.91;;;14.20
67829;BMP280;54626;45.436;10.942;2023-04-25T04:10:58;99781.34;;;14.20
67829;BMP280;54626;45.436;10.942;2023-04-25T04:13:29;99788.38;;;14.21
67829;BMP280;54626;45.436;10.942;2023-04-25T04:15:56;99783.38;;;14.19
67829;BMP280;54626;45.436;10.942;2023-04-25T04:18:22;99777.69;;;14.27
67829;BMP280;54626;45.436;10.942;2023-04-25T04:20:49;99780.47;;;14.27
67829;BMP280;54626;45.436;10.942;2023-04-25T04:23:16;99781.03;;;14.25
67829;BMP280;54626;45.436;10.942;2023-04-25T04:25:46;99783.53;;;14.21
67829;BMP280;54626;45.436;10.942;2023-04-25T04:28:13;99790.56;;;14.22
67829;BMP280;54626;45.436;10.942;2023-04-25T04:30:39;99773.28;;;14.24
67829;BMP280;54626;45.436;10.942;2023-04-25T04:33:08;99767.44;;;14.29
67829;BMP280;54626;45.436;10.942;2023-04-25T04:35:35;99756.75;;;14.26
67829;BMP280;54626;45.436;10.942;2023-04-25T04:38:02;99773.59;;;14.28
67829;BMP280;54626;45.436;10.942;2023-04-25T04:40:29;99774.63;;;14.32
67829;BMP280;54626;45.436;10.942;2023-04-25T04:42:57;99787.69;;;14.39
67829;BMP280;54626;45.436;10.942;2023-04-25T04:45:24;99796.78;;;14.39
67829;BMP280;54626;45.436;10.942;2023-04-25T04:47:50;99802.94;;;14.47
67829;BMP280;54626;45.436;10.942;2023-04-25T04:50:22;99814.06;;;14.47
67829;BMP280;54626;45.436;10.942;2023-04-25T04:52:49;99824.44;;;14.47
67829;BMP280;54626;45.436;10.942;2023-04-25T04:55:16;99836.75;;;14.44
67829;BMP280;54626;45.436;10.942;2023-04-25T04:57:42;99842.91;;;14.42
67829;BMP280;54626;45.436;10.942;2023-04-25T05:00:09;99861.47;;;14.40
67829;BMP280;54626;45.436;10.942;2023-04-25T05:02:38;99887.66;;;14.37
67829;BMP280;54626;45.436;10.942;2023-04-25T05:05:05;99893.53;;;14.41
67829;BMP280;54626;45.436;10.942;2023-04-25T05:07:32;99919.53;;;14.27
67829;BMP280;54626;45.436;10.942;2023-04-25T05:09:58;99945.69;;;13.47
67829;BMP280;54626;45.436;10.942;2023-04-25T05:12:25;99974.16;;;12.25
67829;BMP280;54626;45.436;10.942;2023-04-25T05:14:53;99973.59;;;10.76
67829;BMP280;54626;45.436;10.942;2023-04-25T05:17:22;99958.47;;;9.84
67829;BMP280;54626;45.436;10.942;2023-04-25T05:19:49;99945.41;;;9.29
67829;BMP280;54626;45.436;10.942;2023-04-25T05:22:16;99942.56;;;9.21
67829;BMP280;54626;45.436;10.942;2023-04-25T05:24:42;99952.00;;;9.26
67829;BMP280;54626;45.436;10.942;2023-04-25T05:27:09;99954.88;;;9.41
67829;BMP280;54626;45.436;10.942;2023-04-25T05:29:35;99948.91;;;9.57
67829;BMP280;54626;45.436;10.942;2023-04-25T05:32:02;99943.09;;;9.68
67829;BMP280;54626;45.436;10.942;2023-04-25T05:34:29;99951.16;;;9.94
67829;BMP280;54626;45.436;10.942;2023-04-25T05:36:55;99963.50;;;9.93
67829;BMP280;54626;45.436;10.942;2023-04-25T05:39:22;99950.09;;;9.97
67829;BMP280;54626;45.436;10.942;2023-04-25T05:41:48;99934.28;;;9.97
67829;BMP280;54626;45.436;10.942;2023-04-25T05:44:15;99919.31;;;9.93
67829;BMP280;54626;45.436;10.942;2023-04-25T05:46:42;99918.00;;;9.87
67829;BMP280;54626;45.436;10.942;2023-04-25T05:49:08;99916.94;;;9.97
67829;BMP280;54626;45.436;10.942;2023-04-25T05:51:35;99915.31;;;10.09
67829;BMP280;54626;45.436;10.942;2023-04-25T05:54:02;99907.13;;;10.24
67829;BMP280;54626;45.436;10.942;2023-04-25T05:56:31;99900.50;;;10.34
67829;BMP280;54626;45.436;10.942;2023-04-25T05:58:59;99887.28;;;10.48
67829;BMP280;54626;45.436;10.942;2023-04-25T06:01:26;99871.63;;;10.43
67829;BMP280;54626;45.436;10.942;2023-04-25T06:03:52;99888.41;;;10.52
67829;BMP280;54626;45.436;10.942;2023-04-25T06:06:20;99888.03;;;10.56
67829;BMP280;54626;45.436;10.942;2023-04-25T06:08:47;99899.13;;;10.78
67829;BMP280;54626;45.436;10.942;2023-04-25T06:11:13;99900.06;;;10.95
67829;BMP280;54626;45.436;10.942;2023-04-25T06:13:40;99905.03;;;11.04
67829;BMP280;54626;45.436;10.942;2023-04-25T06:16:06;99911.66;;;11.09
67829;BMP280;54626;45.436;10.942;2023-04-25T06:18:33;99904.06;;;11.17
67829;BMP280;54626;45.436;10.942;2023-04-25T06:21:00;99909.28;;;11.20
67829;BMP280;54626;45.436;10.942;2023-04-25T06:23:26;99912.56;;;11.19
67829;BMP280;54626;45.436;10.942;2023-04-25T06:25:53;99903.91;;;11.22
67829;BMP280;54626;45.436;10.942;2023-04-25T06:28:19;99903.16;;;11.22
67829;BMP280;54626;45.436;10.942;2023-04-25T06:30:48;99896.50;;;11.25
67829;BMP280;54626;45.436;10.942;2023-04-25T06:33:14;99896.88;;;11.29
67829;BMP280;54626;45.436;10.942;2023-04-25T06:35:41;99895.94;;;11.34
67829;BMP280;54626;45.436;10.942;2023-04-25T06:38:07;99889.88;;;11.35
67829;BMP280;54626;45.436;10.942;2023-04-25T06:40:35;99881.03;;;11.29
67829;BMP280;54626;45.436;10.942;2023-04-25T06:43:03;99876.38;;;11.39
67829;BMP280;54626;45.436;10.942;2023-04-25T06:45:32;99884.31;;;11.50
67829;BMP280;54626;45.436;10.942;2023-04-25T06:47:59;99886.13;;;11.55
67829;BMP280;54626;45.436;10.942;2023-04-25T06:50:26;99874.81;;;11.68
67829;BMP280;54626;45.436;10.942;2023-04-25T06:52:52;99861.69;;;11.68
67829;BMP280;54626;45.436;10.942;2023-04-25T06:55:22;99844.53;;;11.70
67829;BMP280;54626;45.436;10.942;2023-04-25T06:57:48;99836.00;;;11.83
67829;BMP280;54626;45.436;10.942;2023-04-25T07:00:15;99831.88;;;11.91
67829;BMP280;54626;45.436;10.942;2023-04-25T07:02:46;99840.09;;;12.06
67829;BMP280;54626;45.436;10.942;2023-04-25T07:05:13;99841.38;;;12.13
67829;BMP280;54626;45.436;10.942;2023-04-25T07:07:40;99834.88;;;12.18
67829;BMP280;54626;45.436;10.942;2023-04-25T07:10:06;99836.34;;;12.18
67829;BMP280;54626;45.436;10.942;2023-04-25T07:12:40;99843.13;;;12.25
67829;BMP280;54626;45.436;10.942;2023-04-25T07:15:07;99846.81;;;12.27
67829;BMP280;54626;45.436;10.942;2023-04-25T07:17:36;99851.06;;;12.28
67829;BMP280;54626;45.436;10.942;2023-04-25T07:20:03;99846.66;;;12.25
67829;BMP280;54626;45.436;10.942;2023-04-25T07:22:30;99843.31;;;12.27
67829;BMP280;54626;45.436;10.942;2023-04-25T07:25:00;99842.44;;;12.17
67829;BMP280;54626;45.436;10.942;2023-04-25T07:27:27;99834.72;;;12.16
67829;BMP280;54626;45.436;10.942;2023-04-25T07:29:53;99823.78;;;12.18
67829;BMP280;54626;45.436;10.942;2023-04-25T07:32:20;99834.63;;;12.23
67829;BMP280;54626;45.436;10.942;2023-04-25T07:34:46;99826.72;;;12.19
67829;BMP280;54626;45.436;10.942;2023-04-25T07:37:17;99822.66;;;12.20
67829;BMP280;54626;45.436;10.942;2023-04-25T07:39:45;99823.72;;;12.25
67829;BMP280;54626;45.436;10.942;2023-04-25T07:42:14;99819.66;;;12.26
67829;BMP280;54626;45.436;10.942;2023-04-25T07:44:41;99817.63;;;12.26
67829;BMP280;54626;45.436;10.942;2023-04-25T07:47:09;99812.25;;;12.28
67829;BMP280;54626;45.436;10.942;2023-04-25T07:49:37;99808.22;;;12.22
67829;BMP280;54626;45.436;10.942;2023-04-25T07:52:05;99804.88;;;12.23
67829;BMP280;54626;45.436;10.942;2023-04-25T07:54:35;99808.97;;;12.22
67829;BMP280;54626;45.436;10.942;2023-04-25T07:57:02;99816.84;;;12.33
67829;BMP280;54626;45.436;10.942;2023-04-25T07:59:30;99831.03;;;12.37
67829;BMP280;54626;45.436;10.942;2023-04-25T08:01:57;99838.06;;;12.38
67829;BMP280;54626;45.436;10.942;2023-04-25T08:04:26;99833.91;;;12.22
67829;BMP280;54626;45.436;10.942;2023-04-25T08:06:53;99828.91;;;12.28
67829;BMP280;54626;45.436;10.942;2023-04-25T08:09:20;99829.94;;;12.33
67829;BMP280;54626;45.436;10.942;2023-04-25T08:11:49;99823.94;;;12.44
67829;BMP280;54626;45.436;10.942;2023-04-25T08:14:16;99815.75;;;12.78
67829;BMP280;54626;45.436;10.942;2023-04-25T08:16:42;99828.41;;;12.88
67829;BMP280;54626;45.436;10.942;2023-04-25T08:19:10;99831.28;;;12.97
67829;BMP280;54626;45.436;10.942;2023-04-25T08:21:37;99836.56;;;12.86
67829;BMP280;54626;45.436;10.942;2023-04-25T08:24:04;99838.22;;;13.23
67829;BMP280;54626;45.436;10.942;2023-04-25T08:26:30;99856.31;;;13.58
67829;BMP280;54626;45.436;10.942;2023-04-25T08:28:57;99865.22;;;13.73
67829;BMP280;54626;45.436;10.942;2023-04-25T08:31:24;99871.09;;;14.03
67829;BMP280;54626;45.436;10.942;2023-04-25T08:33:50;99879.84;;;14.17
67829;BMP280;54626;45.436;10.942;2023-04-25T08:36:18;99876.19;;;14.24
67829;BMP280;54626;45.436;10.942;2023-04-25T08:39:04;99875.59;;;14.25
67829;BMP280;54626;45.436;10.942;2023-04-25T08:41:31;99885.72;;;14.56
67829;BMP280;54626;45.436;10.942;2023-04-25T08:43:58;99881.81;;;14.88
67829;BMP280;54626;45.436;10.942;2023-04-25T08:46:27;99882.09;;;14.73
67829;BMP280;54626;45.436;10.942;2023-04-25T08:48:56;99879.91;;;14.35
67829;BMP280;54626;45.436;10.942;2023-04-25T08:51:25;99880.31;;;14.32
67829;BMP280;54626;45.436;10.942;2023-04-25T08:54:00;99878.00;;;14.38
67829;BMP280;54626;45.436;10.942;2023-04-25T08:56:31;99886.72;;;14.51
67829;BMP280;54626;45.436;10.942;2023-04-25T08:59:01;99883.38;;;14.62
67829;BMP280;54626;45.436;10.942;2023-04-25T09:01:28;99877.28;;;14.73
67829;BMP280;54626;45.436;10.942;2023-04-25T09:03:57;99882.25;;;14.94
67829;BMP280;54626;45.436;10.942;2023-04-25T09:06:24;99876.69;;;14.94
67829;BMP280;54626;45.436;10.942;2023-04-25T09:08:50;99882.59;;;15.16
67829;BMP280;54626;45.436;10.942;2023-04-25T09:11:17;99880.53;;;15.26
67829;BMP280;54626;45.436;10.942;2023-04-25T09:13:45;99885.84;;;15.51
67829;BMP280;54626;45.436;10.942;2023-04-25T09:16:15;99887.28;;;15.80
67829;BMP280;54626;45.436;10.942;2023-04-25T09:18:44;99879.47;;;15.78
67829;BMP280;54626;45.436;10.942;2023-04-25T09:21:14;99885.47;;;15.94
67829;BMP280;54626;45.436;10.942;2023-04-25T09:23:46;99880.34;;;15.90
67829;BMP280;54626;45.436;10.942;2023-04-25T09:26:19;99878.47;;;15.93
67829;BMP280;54626;45.436;10.942;2023-04-25T09:28:46;99878.19;;;16.29
67829;BMP280;54626;45.436;10.942;2023-04-25T09:31:23;99875.28;;;16.17
67829;BMP280;54626;45.436;10.942;2023-04-25T09:33:58;99883.94;;;16.51
67829;BMP280;54626;45.436;10.942;2023-04-25T09:36:26;99892.66;;;16.67
67829;BMP280;54626;45.436;10.942;2023-04-25T09:38:53;99889.56;;;16.72
67829;BMP280;54626;45.436;10.942;2023-04-25T09:41:24;99887.72;;;16.86
67829;BMP280;54626;45.436;10.942;2023-04-25T09:43:56;99897.22;;;16.93
67829;BMP280;54626;45.436;10.942;2023-04-25T09:46:24;99895.03;;;17.12
67829;BMP280;54626;45.436;10.942;2023-04-25T09:48:52;99888.53;;;17.30
67829;BMP280;54626;45.436;10.942;2023-04-25T09:51:25;99893.13;;;17.47
67829;BMP280;54626;45.436;10.942;2023-04-25T09:53:59;99892.91;;;17.33
67829;BMP280;54626;45.436;10.942;2023-04-25T09:56:26;99896.34;;;17.32
67829;BMP280;54626;45.436;10.942;2023-04-25T09:58:55;99894.31;;;17.44
67829;BMP280;54626;45.436;10.942;2023-04-25T10:01:23;99900.16;;;17.48
67829;BMP280;54626;45.436;10.942;2023-04-25T10:03:50;99899.56;;;17.49
67829;BMP280;54626;45.436;10.942;2023-04-25T10:06:19;99905.59;;;17.78
67829;BMP280;54626;45.436;10.942;2023-04-25T10:08:50;99905.88;;;17.82
67829;BMP280;54626;45.436;10.942;2023-04-25T10:11:19;99897.50;;;17.50
67829;BMP280;54626;45.436;10.942;2023-04-25T10:13:50;99903.97;;;18.07
67829;BMP280;54626;45.436;10.942;2023-04-25T10:16:19;99903.63;;;18.35
67829;BMP280;54626;45.436;10.942;2023-04-25T10:18:50;99901.97;;;18.89
67829;BMP280;54626;45.436;10.942;2023-04-25T10:21:19;99909.13;;;19.04
67829;BMP280;54626;45.436;10.942;2023-04-25T10:23:49;99897.41;;;18.37
67829;BMP280;54626;45.436;10.942;2023-04-25T10:26:17;99904.59;;;18.17
67829;BMP280;54626;45.436;10.942;2023-04-25T10:28:58;99902.25;;;17.91
67829;BMP280;54626;45.436;10.942;2023-04-25T10:31:27;99896.09;;;17.71
67829;BMP280;54626;45.436;10.942;2023-04-25T10:33:54;99902.50;;;18.06
67829;BMP280;54626;45.436;10.942;2023-04-25T10:36:22;99904.84;;;18.32
67829;BMP280;54626;45.436;10.942;2023-04-25T10:38:50;99899.84;;;18.54
67829;BMP280;54626;45.436;10.942;2023-04-25T10:41:18;99900.34;;;18.39
67829;BMP280;54626;45.436;10.942;2023-04-25T10:43:46;99895.47;;;18.39
67829;BMP280;54626;45.436;10.942;2023-04-25T10:46:22;99905.91;;;18.73
67829;BMP280;54626;45.436;10.942;2023-04-25T10:48:51;99910.28;;;18.76
67829;BMP280;54626;45.436;10.942;2023-04-25T10:51:23;99910.41;;;18.67
67829;BMP280;54626;45.436;10.942;2023-04-25T10:53:57;99913.19;;;18.89
67829;BMP280;54626;45.436;10.942;2023-04-25T10:56:28;99920.75;;;18.87
67829;BMP280;54626;45.436;10.942;2023-04-25T10:59:09;99920.94;;;19.14
67829;BMP280;54626;45.436;10.942;2023-04-25T11:01:44;99912.03;;;19.06
67829;BMP280;54626;45.436;10.942;2023-04-25T11:04:25;99912.34;;;18.87
67829;BMP280;54626;45.436;10.942;2023-04-25T11:07:02;99920.09;;;18.29
67829;BMP280;54626;45.436;10.942;2023-04-25T11:09:35;99919.78;;;18.82
67829;BMP280;54626;45.436;10.942;2023-04-25T11:12:02;99914.84;;;19.06
67829;BMP280;54626;45.436;10.942;2023-04-25T11:14:31;99914.72;;;18.56
67829;BMP280;54626;45.436;10.942;2023-04-25T11:16:59;99912.97;;;18.40
67829;BMP280;54626;45.436;10.942;2023-04-25T11:19:29;99912.41;;;18.30
67829;BMP280;54626;45.436;10.942;2023-04-25T11:21:56;99903.38;;;18.09
67829;BMP280;54626;45.436;10.942;2023-04-25T11:24:31;99906.66;;;18.17
67829;BMP280;54626;45.436;10.942;2023-04-25T11:26:59;99902.44;;;18.97
67829;BMP280;54626;45.436;10.942;2023-04-25T11:29:26;99916.31;;;19.07
67829;BMP280;54626;45.436;10.942;2023-04-25T11:31:54;99913.69;;;18.86
67829;BMP280;54626;45.436;10.942;2023-04-25T11:34:27;99905.84;;;19.57
67829;BMP280;54626;45.436;10.942;2023-04-25T11:36:57;99907.97;;;20.21
67829;BMP280;54626;45.436;10.942;2023-04-25T11:39:24;99904.44;;;19.69
67829;BMP280;54626;45.436;10.942;2023-04-25T11:41:52;99903.06;;;20.08
67829;BMP280;54626;45.436;10.942;2023-04-25T11:44:20;99901.00;;;20.09
67829;BMP280;54626;45.436;10.942;2023-04-25T11:46:47;99910.66;;;20.19
67829;BMP280;54626;45.436;10.942;2023-04-25T11:49:14;99896.34;;;20.54
67829;BMP280;54626;45.436;10.942;2023-04-25T11:51:42;99911.66;;;20.51
67829;BMP280;54626;45.436;10.942;2023-04-25T11:54:09;99912.66;;;20.70
67829;BMP280;54626;45.436;10.942;2023-04-25T11:56:42;99916.59;;;20.12
67829;BMP280;54626;45.436;10.942;2023-04-25T11:59:09;99918.25;;;20.03
67829;BMP280;54626;45.436;10.942;2023-04-25T12:01:39;99907.69;;;20.29
67829;BMP280;54626;45.436;10.942;2023-04-25T12:04:15;99910.06;;;20.21
67829;BMP280;54626;45.436;10.942;2023-04-25T12:06:44;99913.97;;;20.02
67829;BMP280;54626;45.436;10.942;2023-04-25T12:09:14;99912.34;;;19.23
67829;BMP280;54626;45.436;10.942;2023-04-25T12:11:46;99903.81;;;19.21
67829;BMP280;54626;45.436;10.942;2023-04-25T12:14:26;99904.94;;;19.16
67829;BMP280;54626;45.436;10.942;2023-04-25T12:16:57;99902.75;;;19.15
67829;BMP280;54626;45.436;10.942;2023-04-25T12:19:25;99891.13;;;18.95
67829;BMP280;54626;45.436;10.942;2023-04-25T12:21:55;99897.94;;;18.92
67829;BMP280;54626;45.436;10.942;2023-04-25T12:24:26;99897.88;;;18.68
67829;BMP280;54626;45.436;10.942;2023-04-25T12:27:05;99898.88;;;18.26
67829;BMP280;54626;45.436;10.942;2023-04-25T12:29:33;99900.78;;;17.90
67829;BMP280;54626;45.436;10.942;2023-04-25T12:32:15;99918.06;;;17.33
67829;BMP280;54626;45.436;10.942;2023-04-25T12:34:41;99920.75;;;17.31
67829;BMP280;54626;45.436;10.942;2023-04-25T12:37:11;99923.34;;;17.39
67829;BMP280;54626;45.436;10.942;2023-04-25T12:39:38;99930.53;;;17.00
67829;BMP280;54626;45.436;10.942;2023-04-25T12:42:05;99931.22;;;16.89
67829;BMP280;54626;45.436;10.942;2023-04-25T12:44:35;99939.69;;;16.70
67829;BMP280;54626;45.436;10.942;2023-04-25T12:47:01;99936.44;;;16.43
67829;BMP280;54626;45.436;10.942;2023-04-25T12:49:29;99940.63;;;16.24
67829;BMP280;54626;45.436;10.942;2023-04-25T12:51:58;99928.91;;;16.06
67829;BMP280;54626;45.436;10.942;2023-04-25T12:54:26;99928.22;;;15.87
67829;BMP280;54626;45.436;10.942;2023-04-25T12:56:53;99937.91;;;15.67
67829;BMP280;54626;45.436;10.942;2023-04-25T12:59:19;99959.63;;;15.50
67829;BMP280;54626;45.436;10.942;2023-04-25T13:01:48;99981.69;;;15.10
67829;BMP280;54626;45.436;10.942;2023-04-25T13:04:17;99996.31;;;14.65
67829;BMP280;54626;45.436;10.942;2023-04-25T13:06:47;100001.78;;;14.46
67829;BMP280;54626;45.436;10.942;2023-04-25T13:09:13;100005.56;;;14.41
67829;BMP280;54626;45.436;10.942;2023-04-25T13:11:45;100007.28;;;14.37
67829;BMP280;54626;45.436;10.942;2023-04-25T13:14:12;100019.63;;;14.43
67829;BMP280;54626;45.436;10.942;2023-04-25T13:16:41;100014.53;;;14.49
67829;BMP280;54626;45.436;10.942;2023-04-25T13:19:08;100014.97;;;14.46
67829;BMP280;54626;45.436;10.942;2023-04-25T13:21:47;100013.00;;;14.39
67829;BMP280;54626;45.436;10.942;2023-04-25T13:24:14;100026.44;;;14.33
67829;BMP280;54626;45.436;10.942;2023-04-25T13:26:46;100020.81;;;14.07
67829;BMP280;54626;45.436;10.942;2023-04-25T13:29:18;100013.22;;;13.90
67829;BMP280;54626;45.436;10.942;2023-04-25T13:31:44;100019.94;;;13.87
67829;BMP280;54626;45.436;10.942;2023-04-25T13:34:11;100016.31;;;13.77
67829;BMP280;54626;45.436;10.942;2023-04-25T13:36:38;100008.66;;;13.68
67829;BMP280;54626;45.436;10.942;2023-04-25T13:39:07;99997.63;;;13.61
67829;BMP280;54626;45.436;10.942;2023-04-25T13:41:34;99991.81;;;13.66
67829;BMP280;54626;45.436;10.942;2023-04-25T13:44:01;99993.69;;;13.64
67829;BMP280;54626;45.436;10.942;2023-04-25T13:46:31;99994.25;;;13.63
67829;BMP280;54626;45.436;10.942;2023-04-25T13:49:12;100002.75;;;13.64
67829;BMP280;54626;45.436;10.942;2023-04-25T13:51:40;100010.94;;;13.63
67829;BMP280;54626;45.436;10.942;2023-04-25T13:54:07;100018.53;;;13.62
67829;BMP280;54626;45.436;10.942;2023-04-25T13:56:34;100021.56;;;13.73
67829;BMP280;54626;45.436;10.942;2023-04-25T13:59:00;100021.97;;;13.70
67829;BMP280;54626;45.436;10.942;2023-04-25T14:01:27;100016.88;;;13.59